Latest Weather Observations for Camden

IDN60901

Issued at 9:25 am EST Wednesday 23 July 2014 (issued every 10 minutes, with the page automatically refreshed every 10 minutes)

About weather observations | Map of Sydney area stations | Latest observations for Sydney area | Other Formats
Station Details ID: 068192 Name: CAMDEN AIRPORT AWS Lat: -34.04 Lon: 150.69 Height: 73.9 m
Data from the previous 72 hours. | See also: Recent months at Camden
Date/Time
EST
Tmp

°C
App
Tmp
°C
Dew
Point
°C
Rel
Hum
%
Delta-T

°C
Wind Press
QNH
hPa
Press
MSL
hPa
Rain
since
9 am
mm
Dir
 
Spd
km/h
Gust
km/h
Spd
kts
Gust
kts
23/09:00am 8.3 7.8 7.7 96 0.3 CALM 0 0 0 0 1025.6 1025.7 0.0
23/08:30am 6.4 5.6 6.3 99 0.0 CALM 0 0 0 0 1025.4 - 0.0
23/08:09am 4.2 2.9 4.1 99 0.0 CALM 0 2 0 1 1025.3 - 0.0
23/08:00am 3.5 2.1 3.4 99 0.0 CALM 0 2 0 1 1025.2 1025.3 0.0
23/07:43am 2.4 -0.4 2.3 99 0.0 SSE 6 6 3 3 1025.1 - 0.0
23/07:30am 2.1 0.0 2.0 99 0.0 W 2 6 1 3 1025.1 - 0.0
23/07:00am 1.7 0.0 1.6 99 0.0 W 0 0 0 0 1024.7 1024.8 0.0
23/06:30am 1.9 0.2 1.8 99 0.0 CALM 0 0 0 0 1024.5 - 0.0
23/06:00am 2.4 0.8 2.3 99 0.0 W 0 0 0 0 1024.1 1024.2 0.0
23/05:38am 2.5 0.9 2.4 99 0.0 CALM 0 0 0 0 1023.8 - 0.0
23/05:30am 2.6 1.0 2.5 99 0.0 CALM 0 0 0 0 1023.7 - 0.0
23/05:08am 2.8 1.2 2.7 99 0.0 CALM 0 0 0 0 1023.7 - 0.0
23/05:00am 2.7 1.1 2.6 99 0.0 CALM 0 0 0 0 1023.6 1023.7 0.0
23/04:36am 3.2 1.7 3.1 99 0.0 CALM 0 0 0 0 1023.4 - 0.0
23/04:30am 3.2 1.7 3.1 99 0.0 CALM 0 0 0 0 1023.5 - 0.0
23/04:00am 3.7 2.3 3.6 99 0.0 CALM 0 0 0 0 1023.4 1023.5 0.0
23/03:30am 4.0 2.7 3.9 99 0.0 CALM 0 0 0 0 1023.4 - 0.0
23/03:00am 4.5 3.3 4.4 99 0.0 CALM 0 0 0 0 1023.6 1023.7 0.0
23/02:46am 4.5 3.3 4.4 99 0.0 CALM 0 0 0 0 1023.9 - 0.0
23/02:45am 4.5 3.3 4.4 99 0.0 CALM 0 0 0 0 1023.9 - 0.0
23/02:30am 4.9 3.7 4.8 99 0.0 CALM 0 0 0 0 1023.9 - 0.0
23/02:22am 5.2 4.1 5.1 99 0.0 CALM 0 0 0 0 1024.0 - 0.0
23/02:14am 5.4 4.3 5.3 99 0.0 CALM 0 0 0 0 1024.0 - 0.0
23/02:00am 5.3 4.2 5.2 99 0.0 CALM 0 0 0 0 1024.0 1024.1 0.0
23/01:50am 5.7 4.7 5.6 99 0.0 CALM 0 0 0 0 1024.1 - 0.0
23/01:30am 5.5 4.5 5.4 99 0.0 CALM 0 0 0 0 1024.1 - 0.0
23/01:00am 4.9 3.6 4.3 96 0.3 CALM 0 0 0 0 1024.2 1024.3 0.0
23/12:49am 5.1 3.9 4.5 96 0.3 CALM 0 2 0 1 1024.1 - 0.0
23/12:46am 5.2 3.7 4.8 97 0.2 WSW 2 9 1 5 1024.1 - 0.0
23/12:43am 5.5 3.7 5.2 98 0.1 S 4 9 2 5 1024.1 - 0.0
23/12:40am 5.7 3.4 5.6 99 0.0 SSE 7 9 4 5 1024.1 - 0.0
23/12:30am 6.7 5.9 6.6 99 0.0 CALM 0 0 0 0 1024.1 - 0.0
23/12:28am 6.8 6.0 6.7 99 0.0 CALM 0 0 0 0 1024.1 - 0.0
23/12:26am 6.9 6.2 6.8 99 0.0 CALM 0 0 0 0 1024.1 - 0.0
23/12:25am 7.0 6.3 6.9 99 0.0 CALM 0 0 0 0 1024.1 - 0.0
23/12:21am 7.0 6.3 6.9 99 0.0 CALM 0 0 0 0 1024.2 - 0.0
23/12:01am 6.0 5.0 5.4 96 0.3 WSW 0 0 0 0 1024.2 - 0.0
23/12:00am 6.1 5.1 5.5 96 0.3 WSW 0 0 0 0 1024.2 1024.3 0.0
 
Date/Time
EST
Tmp

°C
App
Tmp
°C
Dew
Point
°C
Rel
Hum
%
Delta-T

°C
Wind Press
QNH
hPa
Press
MSL
hPa
Rain
since
9 am
mm
Dir
 
Spd
km/h
Gust
km/h
Spd
kts
Gust
kts
22/11:55pm 6.2 5.2 5.5 95 0.3 CALM 0 0 0 0 1024.3 - 0.0
22/11:30pm 7.2 6.0 6.6 96 0.3 SE 2 7 1 4 1024.4 - 0.0
22/11:00pm 7.3 6.4 6.1 92 0.5 SSE 0 0 0 0 1024.5 1024.6 0.0
22/10:30pm 8.3 7.7 7.2 93 0.5 CALM 0 0 0 0 1024.4 - 0.0
22/10:00pm 8.6 8.0 7.5 93 0.5 CALM 0 0 0 0 1024.4 1024.5 0.0
22/09:30pm 8.5 7.4 7.0 90 0.7 SSE 2 6 1 3 1024.4 - 0.0
22/09:00pm 9.0 8.5 7.8 92 0.6 CALM 0 0 0 0 1024.3 1024.4 0.0
22/08:30pm 8.5 7.8 7.0 90 0.7 N 0 0 0 0 1024.3 - 0.0
22/08:00pm 9.4 8.9 8.0 91 0.7 CALM 0 0 0 0 1024.6 1024.7 0.0
22/07:30pm 9.6 8.1 8.4 92 0.6 N 6 6 3 3 1024.4 - 0.0
22/07:00pm 10.1 9.6 7.9 86 1.1 CALM 0 0 0 0 1024.0 1024.1 0.0
22/06:30pm 10.8 9.8 7.3 79 1.7 S 2 7 1 4 1023.7 - 0.0
22/06:00pm 12.7 11.2 8.4 75 2.1 SE 6 9 3 5 1023.2 1023.3 0.0
22/05:30pm 13.4 11.2 8.0 70 2.7 ESE 9 11 5 6 1022.8 - 0.0
22/05:00pm 14.5 12.6 7.5 63 3.5 E 7 11 4 6 1022.5 1022.6 0.0
22/04:30pm 16.0 13.4 7.7 58 4.2 E 11 17 6 9 1022.2 - 0.0
22/04:00pm 17.1 13.8 6.6 50 5.2 ENE 13 17 7 9 1022.0 1022.1 0.0
22/03:30pm 17.2 14.8 7.0 51 5.1 E 9 11 5 6 1021.9 - 0.0
22/03:00pm 18.4 16.0 7.2 48 5.6 E 9 17 5 9 1021.8 1021.9 0.0
22/02:39pm 18.3 16.4 4.8 41 6.5 SSW 4 9 2 5 1021.8 - 0.0
22/02:30pm 17.9 16.8 5.2 43 6.1 CALM 0 0 0 0 1021.8 - 0.0
22/02:11pm 17.6 15.2 4.5 42 6.2 N 6 13 3 7 1021.8 - 0.0
22/02:00pm 19.3 16.8 5.0 39 6.9 NW 7 13 4 7 1021.8 1021.9 0.0
22/01:30pm 18.9 16.8 5.7 42 6.5 NW 6 9 3 5 1022.0 - 0.0
22/01:00pm 18.1 15.5 6.0 45 5.9 ESE 9 13 5 7 1022.3 1022.4 0.0
22/12:30pm 17.6 15.0 6.2 47 5.6 NNE 9 15 5 8 1022.8 - 0.0
22/12:00pm 17.0 14.0 6.2 49 5.3 NNE 11 15 6 8 1023.4 1023.5 0.0
22/11:30am 16.9 15.0 7.5 54 4.7 ENE 7 11 4 6 1023.9 - 0.0
22/11:00am 15.7 14.0 7.7 59 4.0 S 6 9 3 5 1024.4 1024.5 0.0
22/10:30am 15.5 14.8 8.7 64 3.5 NW 2 7 1 4 1024.7 - 0.0
22/10:00am 12.9 11.9 9.0 77 2.0 SW 4 7 2 4 1025.0 1025.1 0.0
22/09:30am 10.4 8.8 7.8 84 1.3 ESE 6 9 3 5 1025.1 - 0.0
22/09:00am 8.0 6.6 7.4 96 0.3 SE 4 7 2 4 1025.0 1025.1 0.0
22/08:30am 5.6 4.6 5.5 99 0.0 CALM 0 0 0 0 1025.1 - 0.0
22/08:00am 3.6 1.8 3.5 99 0.0 SSE 2 6 1 3 1025.0 1025.1 0.0
22/07:30am 1.8 -1.1 1.7 99 0.0 SE 6 7 3 4 1024.7 - 0.0
22/07:28am 1.8 -1.1 1.7 99 0.0 SE 6 6 3 3 1024.7 - 0.0
22/07:00am 1.0 -2.0 0.9 99 0.0 S 6 9 3 5 1024.5 1024.6 0.0
22/06:53am 1.3 -0.5 1.2 99 0.0 CALM 0 0 0 0 1024.4 - 0.0
22/06:44am 2.1 0.4 2.0 99 0.0 CALM 0 0 0 0 1024.4 - 0.0
22/06:32am 1.7 0.0 1.6 99 0.0 CALM 0 0 0 0 1024.2 - 0.0
22/06:30am 1.6 -0.2 1.5 99 0.0 CALM 0 0 0 0 1024.2 - 0.0
22/06:25am 1.6 -0.2 1.5 99 0.0 CALM 0 0 0 0 1024.2 - 0.0
22/06:18am 2.3 0.7 2.2 99 0.0 CALM 0 0 0 0 1024.2 - 0.0
22/06:00am 1.6 -0.2 1.5 99 0.0 CALM 0 0 0 0 1024.1 1024.2 0.0
22/05:30am 2.1 0.4 2.0 99 0.0 CALM 0 0 0 0 1023.9 - 0.0
22/05:00am 2.0 0.3 1.9 99 0.0 CALM 0 0 0 0 1023.5 1023.6 0.0
22/04:30am 2.6 1.0 2.5 99 0.0 CALM 0 0 0 0 1023.4 - 0.0
22/04:00am 2.7 1.1 2.6 99 0.0 CALM 0 0 0 0 1023.3 1023.4 0.0
22/03:30am 3.3 1.8 3.2 99 0.0 CALM 0 0 0 0 1023.4 - 0.0
22/03:00am 3.7 2.3 3.6 99 0.0 CALM 0 0 0 0 1023.4 1023.5 0.0
22/02:30am 3.6 2.2 3.5 99 0.0 CALM 0 0 0 0 1023.4 - 0.0
22/02:08am 4.8 3.6 4.7 99 0.0 CALM 0 0 0 0 1023.6 - 0.0
22/02:00am 5.0 3.9 4.9 99 0.0 CALM 0 0 0 0 1023.7 1023.8 0.0
22/01:30am 4.1 2.8 4.0 99 0.0 CALM 0 0 0 0 1023.9 - 0.0
22/01:00am 4.5 3.2 4.2 98 0.1 CALM 0 0 0 0 1024.1 1024.2 0.0
22/12:31am 4.9 3.7 4.8 99 0.0 CALM 0 0 0 0 1024.1 - 0.0
22/12:30am 5.1 4.0 5.0 99 0.0 CALM 0 0 0 0 1024.1 - 0.0
22/12:00am 5.5 4.5 5.4 99 0.0 CALM 0 0 0 0 1024.2 1024.3 0.0
 
Date/Time
EST
Tmp

°C
App
Tmp
°C
Dew
Point
°C
Rel
Hum
%
Delta-T

°C
Wind Press
QNH
hPa
Press
MSL
hPa
Rain
since
9 am
mm
Dir
 
Spd
km/h
Gust
km/h
Spd
kts
Gust
kts
21/11:30pm 5.2 4.0 4.6 96 0.3 CALM 0 0 0 0 1024.4 - 0.0
21/11:22pm 5.1 3.9 4.5 96 0.3 CALM 0 0 0 0 1024.4 - 0.0
21/11:19pm 5.2 4.0 4.6 96 0.3 CALM 0 0 0 0 1024.4 - 0.0
21/11:16pm 5.6 4.5 5.0 96 0.3 CALM 0 0 0 0 1024.4 - 0.0
21/11:00pm 6.1 5.1 5.8 98 0.1 CALM 0 0 0 0 1024.5 1024.6 0.0
21/10:48pm 6.6 5.8 6.3 98 0.1 CALM 0 0 0 0 1024.6 - 0.0
21/10:36pm 6.6 5.7 6.0 96 0.3 CALM 0 0 0 0 1024.6 - 0.0
21/10:35pm 6.6 5.7 6.0 96 0.3 CALM 0 0 0 0 1024.7 - 0.0
21/10:32pm 6.4 5.4 5.7 95 0.3 CALM 0 0 0 0 1024.7 - 0.0
21/10:30pm 6.2 5.2 5.5 95 0.3 CALM 0 0 0 0 1024.7 - 0.0
21/10:25pm 6.4 5.4 5.7 95 0.3 CALM 0 0 0 0 1024.7 - 0.0
21/10:15pm 6.6 5.7 5.9 95 0.3 CALM 0 0 0 0 1024.7 - 0.0
21/10:05pm 7.6 7.0 7.2 97 0.2 CALM 0 0 0 0 1024.7 - 0.0
21/10:00pm 7.7 7.1 7.3 97 0.2 CALM 0 0 0 0 1024.7 1024.8 0.0
21/09:30pm 7.4 6.6 6.7 95 0.3 CALM 0 0 0 0 1024.7 - 0.0
21/09:00pm 8.6 8.0 7.5 93 0.5 CALM 0 0 0 0 1024.7 1024.8 0.0
21/08:30pm 9.5 9.1 8.1 91 0.7 CALM 0 0 0 0 1024.6 - 0.0
21/08:00pm 9.8 9.4 8.2 90 0.8 CALM 0 0 0 0 1024.5 1024.6 0.0
21/07:30pm 9.4 8.8 7.5 88 0.9 CALM 0 0 0 0 1024.5 - 0.0
21/07:00pm 9.9 9.3 7.5 85 1.1 CALM 0 0 0 0 1024.3 1024.4 0.0
21/06:30pm 10.9 10.3 7.4 79 1.7 CALM 0 0 0 0 1024.0 - 0.0
21/06:00pm 12.3 11.5 8.2 76 2.0 SE 2 6 1 3 1023.7 1023.8 0.0
21/05:30pm 13.0 10.8 7.9 71 2.5 SE 9 15 5 8 1023.6 - 0.0
21/05:00pm 14.2 11.6 7.9 66 3.1 E 11 13 6 7 1023.5 1023.6 0.0
21/04:30pm 15.3 13.2 8.1 62 3.6 E 9 17 5 9 1023.4 - 0.0
21/04:00pm 16.1 13.9 7.8 58 4.2 ENE 9 15 5 8 1023.2 1023.3 0.0
21/03:30pm 16.2 13.5 7.2 55 4.5 NNE 11 15 6 8 1023.0 - 0.0
21/03:00pm 17.5 14.5 4.1 41 6.3 N 9 15 5 8 1022.8 1022.9 0.0
21/02:30pm 18.4 15.9 4.6 40 6.6 NNW 7 11 4 6 1022.8 - 0.0
21/02:00pm 17.5 14.8 3.8 40 6.4 WNW 7 13 4 7 1023.0 1023.1 0.0
21/01:30pm 17.4 14.5 4.4 42 6.2 WNW 9 17 5 9 1023.1 - 0.0
21/01:00pm 17.7 15.2 4.6 42 6.2 SSW 7 11 4 6 1023.6 1023.7 0.0
21/12:30pm 16.6 14.0 3.3 41 6.1 W 6 11 3 6 1024.0 - 0.0
21/12:00pm 16.3 14.2 3.7 43 5.8 WSW 4 13 2 7 1024.6 1024.7 0.0
21/11:30am 15.5 13.1 4.5 48 5.2 NW 6 9 3 5 1025.5 - 0.0
21/11:00am 14.2 13.1 5.3 55 4.2 CALM 0 0 0 0 1026.1 1026.2 0.0
21/10:30am 13.9 12.9 5.5 57 4.0 CALM 0 0 0 0 1026.5 - 0.0
21/10:00am 12.2 10.5 5.8 65 3.0 S 4 7 2 4 1026.8 1027.0 0.0
21/09:30am 10.2 8.1 5.8 74 2.0 S 6 7 3 4 1026.9 - 0.0
21/09:00am 7.5 5.0 5.0 84 1.1 SE 7 11 4 6 1027.1 1027.3 0.0
21/08:30am 5.5 4.4 4.9 96 0.3 CALM 0 0 0 0 1027.0 - 0.0
21/08:00am 2.7 0.0 2.4 98 0.1 SSE 6 9 3 5 1027.0 1027.2 0.0
21/07:30am 1.4 -0.4 1.1 98 0.1 CALM 0 0 0 0 1026.8 - 0.0
21/07:00am 0.9 -1.4 0.6 98 0.1 S 2 7 1 4 1026.8 1027.0 0.0
21/06:30am 1.0 -2.2 0.7 98 0.1 SSE 7 11 4 6 1026.5 - 0.0
21/06:00am 1.4 -0.4 1.1 98 0.1 CALM 0 0 0 0 1026.3 1026.4 0.0
21/05:30am 1.4 -1.2 1.1 98 0.1 S 4 6 2 3 1026.1 - 0.0
21/05:00am 0.5 -2.2 0.1 97 0.1 SSE 4 9 2 5 1026.0 1026.1 0.0
21/04:56am 0.7 -2.6 0.4 98 0.1 ESE 7 15 4 8 1026.0 - 0.0
21/04:37am 1.4 -0.4 1.0 97 0.2 CALM 0 0 0 0 1026.0 - 0.0
21/04:34am 0.8 -1.2 0.2 96 0.2 CALM 0 0 0 0 1026.0 - 0.0
21/04:30am 1.0 -0.9 0.6 97 0.1 CALM 0 0 0 0 1026.0 - 0.0
21/04:22am 1.9 0.2 1.6 98 0.1 CALM 0 0 0 0 1026.0 - 0.0
21/04:00am 1.4 -0.5 0.8 96 0.2 CALM 0 0 0 0 1025.9 1026.0 0.0
21/03:56am 1.2 -0.7 0.6 96 0.2 CALM 0 0 0 0 1025.9 - 0.0
21/03:32am 2.1 0.4 1.7 97 0.2 CALM 0 0 0 0 1025.7 - 0.0
21/03:30am 1.9 0.1 1.5 97 0.2 CALM 0 0 0 0 1025.6 - 0.0
21/03:00am 1.8 0.0 1.2 96 0.2 CALM 0 0 0 0 1025.7 1025.8 0.0
21/02:54am 2.1 0.3 1.5 96 0.2 CALM 0 0 0 0 1025.7 - 0.0
21/02:30am 3.3 1.8 2.9 97 0.2 CALM 0 0 0 0 1025.8 - 0.0
21/02:24am 3.1 1.5 2.7 97 0.2 CALM 0 0 0 0 1025.7 - 0.0
21/02:00am 2.5 0.8 1.8 95 0.3 CALM 0 0 0 0 1025.9 1026.0 0.0
21/01:30am 3.0 1.4 2.6 97 0.2 CALM 0 0 0 0 1026.0 - 0.0
21/01:00am 2.9 1.3 2.2 95 0.3 CALM 0 0 0 0 1025.8 1025.9 0.0
21/12:30am 2.8 1.0 1.5 91 0.5 CALM 0 0 0 0 1025.9 - 0.0
21/12:00am 4.8 3.4 3.8 93 0.4 CALM 0 0 0 0 1026.2 1026.3 0.0
 
Date/Time
EST
Tmp

°C
App
Tmp
°C
Dew
Point
°C
Rel
Hum
%
Delta-T

°C
Wind Press
QNH
hPa
Press
MSL
hPa
Rain
since
9 am
mm
Dir
 
Spd
km/h
Gust
km/h
Spd
kts
Gust
kts
20/11:30pm 4.9 3.5 3.4 90 0.6 CALM 0 0 0 0 1026.4 - 0.0
20/11:00pm 5.4 3.7 4.2 92 0.5 N 2 7 1 4 1026.5 1026.7 0.0
20/10:30pm 5.3 2.3 4.3 93 0.4 N 9 9 5 5 1026.8 - 0.0
20/10:00pm 5.6 3.9 4.2 91 0.6 NNW 2 7 1 4 1026.6 1026.8 0.0
20/09:30pm 5.7 4.3 3.7 87 0.8 CALM 0 0 0 0 1026.6 - 0.0
20/09:00pm 6.4 5.2 4.4 87 0.9 CALM 0 2 0 1 1026.6 1026.8 0.0
20/08:30pm 7.4 6.2 4.7 83 1.2 CALM 0 0 0 0 1026.5 - 0.0
20/08:00pm 7.7 6.1 4.7 81 1.3 WNW 2 7 1 4 1026.4 1026.5 0.0
20/07:30pm 8.8 7.8 5.5 80 1.5 CALM 0 0 0 0 1026.2 - 0.0
20/07:00pm 9.1 8.0 5.1 76 1.8 CALM 0 0 0 0 1026.0 1026.1 0.0
20/06:30pm 10.5 8.2 4.9 68 2.5 SSW 6 9 3 5 1025.8 - 0.0
20/06:00pm 12.1 10.0 5.7 65 3.0 ESE 6 9 3 5 1025.5 1025.6 0.0
20/05:30pm 12.5 10.4 5.7 63 3.2 ESE 6 7 3 4 1025.2 - 0.0
20/05:00pm 13.5 10.8 5.4 58 3.8 ESE 9 13 5 7 1024.9 1025.0 0.0
20/04:30pm 15.1 12.2 4.5 49 5.0 SE 9 13 5 7 1024.9 - 0.0
20/04:00pm 15.6 12.7 4.6 48 5.1 SE 9 13 5 7 1024.8 1024.9 0.0
20/03:30pm 16.1 12.8 4.8 47 5.4 SE 11 17 6 9 1024.8 - 0.0
20/03:00pm 16.5 14.0 4.5 45 5.6 S 7 9 4 5 1024.6 1024.7 0.0
20/02:30pm 16.4 13.4 4.1 44 5.8 S 9 13 5 7 1024.6 - 0.0
20/02:00pm 16.8 13.5 4.5 44 5.8 S 11 17 6 9 1024.6 1024.7 0.0
20/01:30pm 17.2 13.0 3.8 41 6.3 S 15 22 8 12 1024.6 - 0.0
20/01:00pm 16.6 12.5 4.6 45 5.6 S 15 26 8 14 1025.0 1025.1 0.0
20/12:30pm 15.9 11.9 4.9 48 5.2 SSW 15 20 8 11 1025.2 - 0.0
20/12:00pm 15.5 10.9 5.4 51 4.8 SSW 19 28 10 15 1025.7 1025.8 0.0
20/11:30am 15.2 10.6 5.7 53 4.6 S 19 28 10 15 1025.9 - 0.0
20/11:00am 14.7 10.9 4.1 49 4.9 SW 13 20 7 11 1026.2 1026.3 0.0
20/10:30am 14.7 10.2 4.4 50 4.8 SW 17 28 9 15 1026.2 - 0.0
20/10:00am 13.4 8.5 4.0 53 4.3 SW 19 26 10 14 1026.4 1026.5 0.0
20/09:30am 13.4 9.3 4.3 54 4.2 SSW 15 20 8 11 1026.1 - 0.0

Latest Capital City Observations: Canberra | Sydney | Melbourne | Brisbane | Adelaide | Perth | Hobart | Darwin

Other Formats:

Comma delimited format used in spreadsheet applications
http://www.bom.gov.au/fwo/IDN60901/IDN60901.94755.axf

JavaScript Object Notation format (JSON) in row-major order
http://www.bom.gov.au/fwo/IDN60901/IDN60901.94755.json